createdAt,value
2019-01-31T00:00:32.172Z,34.10
2019-01-31T00:01:32.154Z,34.00
2019-01-31T00:02:32.207Z,33.40
2019-01-31T00:03:32.131Z,33.10
2019-01-31T00:04:32.117Z,34.20
2019-01-31T00:05:32.106Z,33.30
2019-01-31T00:06:32.091Z,33.40
2019-01-31T00:07:32.080Z,33.60
2019-01-31T00:08:32.070Z,32.90
2019-01-31T00:09:32.064Z,32.20
2019-01-31T00:10:32.047Z,32.00
2019-01-31T00:11:32.030Z,32.30
2019-01-31T00:12:32.022Z,33.00
2019-01-31T00:13:32.007Z,32.00
2019-01-31T00:14:31.995Z,32.20
2019-01-31T00:15:31.985Z,33.10
2019-01-31T00:16:31.970Z,31.80
2019-01-31T00:17:31.961Z,32.90
2019-01-31T00:18:31.945Z,32.00
2019-01-31T00:19:31.935Z,31.20
2019-01-31T00:20:31.924Z,31.70
2019-01-31T00:21:31.911Z,32.80
2019-01-31T00:22:31.897Z,32.10
2019-01-31T00:23:31.882Z,32.00
2019-01-31T00:24:31.872Z,33.40
2019-01-31T00:25:31.871Z,32.30
2019-01-31T00:26:31.857Z,32.60
2019-01-31T00:27:31.834Z,32.30
2019-01-31T00:28:31.839Z,32.80
2019-01-31T00:29:31.813Z,32.70
2019-01-31T00:30:31.797Z,32.50
2019-01-31T00:31:31.789Z,32.60
2019-01-31T00:32:31.776Z,33.60
2019-01-31T00:33:31.765Z,33.40
2019-01-31T00:34:31.755Z,32.50
2019-01-31T00:35:31.738Z,32.50
2019-01-31T00:36:31.729Z,32.40
2019-01-31T00:37:31.716Z,32.00
2019-01-31T00:38:31.702Z,32.10
2019-01-31T00:39:31.694Z,31.90
2019-01-31T00:40:31.684Z,33.50
2019-01-31T00:41:31.667Z,32.70
2019-01-31T00:42:31.657Z,32.80
2019-01-31T00:43:31.643Z,32.50
2019-01-31T00:44:31.628Z,33.50
2019-01-31T00:45:31.620Z,32.90
2019-01-31T00:46:31.615Z,32.20
2019-01-31T00:47:31.594Z,32.90
2019-01-31T00:48:31.583Z,32.70
2019-01-31T00:49:31.569Z,33.20
2019-01-31T00:50:31.559Z,32.60
2019-01-31T00:51:31.545Z,32.40
2019-01-31T00:52:31.532Z,32.40
2019-01-31T00:53:31.524Z,33.30
2019-01-31T00:54:31.511Z,32.70
2019-01-31T00:55:31.499Z,32.60
2019-01-31T00:56:31.487Z,32.70
2019-01-31T00:57:31.478Z,32.40
2019-01-31T00:58:31.460Z,32.40
2019-01-31T00:59:31.449Z,33.20
2019-01-31T01:00:31.439Z,33.30
2019-01-31T01:01:31.426Z,32.90
2019-01-31T01:02:31.408Z,32.10
2019-01-31T01:03:31.400Z,32.00
2019-01-31T01:04:31.389Z,32.50
2019-01-31T01:05:31.376Z,32.40
2019-01-31T01:06:31.366Z,32.80
2019-01-31T01:07:31.350Z,32.80
2019-01-31T01:08:31.346Z,33.30
2019-01-31T01:09:31.330Z,32.20
2019-01-31T01:10:31.317Z,32.30
2019-01-31T01:11:31.302Z,33.10
2019-01-31T01:12:31.293Z,33.40
2019-01-31T01:13:31.279Z,33.20
2019-01-31T01:14:31.297Z,33.30
2019-01-31T01:15:31.255Z,32.60
2019-01-31T01:16:31.241Z,32.70
2019-01-31T01:17:31.231Z,33.70
2019-01-31T01:18:31.224Z,33.40
2019-01-31T01:19:31.208Z,33.20
2019-01-31T01:20:31.194Z,32.40
2019-01-31T01:21:31.187Z,32.90
2019-01-31T01:22:31.169Z,32.20
2019-01-31T01:23:31.168Z,33.50
2019-01-31T01:24:31.146Z,32.10
2019-01-31T01:25:31.126Z,32.20
2019-01-31T01:26:31.122Z,31.00
2019-01-31T01:27:31.113Z,32.20
2019-01-31T01:28:31.097Z,32.80
2019-01-31T01:29:31.087Z,33.00
2019-01-31T01:30:31.075Z,32.60
2019-01-31T01:31:31.059Z,33.40
2019-01-31T01:32:31.047Z,32.80
2019-01-31T01:33:31.040Z,32.20
2019-01-31T01:34:31.023Z,32.00
2019-01-31T01:35:31.013Z,31.60
2019-01-31T01:36:31.004Z,32.10
2019-01-31T01:37:30.987Z,32.20
2019-01-31T01:38:30.977Z,31.90
2019-01-31T01:39:30.962Z,32.80
2019-01-31T01:40:30.952Z,32.00
2019-01-31T01:41:30.941Z,31.50
2019-01-31T01:42:30.925Z,32.40
2019-01-31T01:43:30.968Z,31.70
2019-01-31T01:44:30.904Z,32.40
2019-01-31T01:45:30.892Z,32.20
2019-01-31T01:46:30.879Z,32.40
2019-01-31T01:47:30.867Z,31.80
2019-01-31T01:48:30.854Z,32.90
2019-01-31T01:49:30.841Z,32.00
2019-01-31T01:50:30.829Z,31.50
2019-01-31T01:51:30.843Z,32.30
2019-01-31T01:52:30.813Z,31.70
2019-01-31T01:53:30.798Z,31.90
2019-01-31T01:54:30.777Z,32.30
2019-01-31T01:55:30.777Z,32.00
2019-01-31T01:56:30.763Z,32.20
2019-01-31T01:57:30.760Z,31.00
2019-01-31T01:58:30.731Z,32.10
2019-01-31T01:59:30.723Z,32.00
2019-01-31T02:00:30.711Z,32.10
2019-01-31T02:01:30.694Z,31.50
2019-01-31T02:02:30.689Z,31.90
2019-01-31T02:03:30.675Z,32.40
2019-01-31T02:04:30.659Z,32.10
2019-01-31T02:05:30.650Z,31.50
2019-01-31T02:06:30.642Z,32.00
2019-01-31T02:07:30.626Z,31.40
2019-01-31T02:08:30.618Z,31.30
2019-01-31T02:09:30.648Z,31.70
2019-01-31T02:10:30.593Z,31.20
2019-01-31T02:11:30.579Z,32.70
2019-01-31T02:12:30.565Z,32.20
2019-01-31T02:13:30.554Z,32.30
2019-01-31T02:14:30.544Z,32.30
2019-01-31T02:15:30.529Z,32.30
2019-01-31T02:16:30.518Z,32.10
2019-01-31T02:17:30.516Z,31.60
2019-01-31T02:18:30.494Z,31.80
2019-01-31T02:19:30.482Z,31.80
2019-01-31T02:20:30.469Z,33.30
2019-01-31T02:21:30.458Z,31.60
2019-01-31T02:22:30.444Z,32.50
2019-01-31T02:23:30.433Z,32.10
2019-01-31T02:24:30.422Z,31.40
2019-01-31T02:25:30.410Z,31.80
2019-01-31T02:26:30.397Z,31.30
2019-01-31T02:27:30.389Z,31.80
2019-01-31T02:28:30.373Z,32.50
2019-01-31T02:29:30.363Z,31.40
2019-01-31T02:30:30.356Z,31.20
2019-01-31T02:31:30.339Z,31.40
2019-01-31T02:32:30.329Z,31.70
2019-01-31T02:33:30.314Z,30.40
2019-01-31T02:34:30.304Z,30.90
2019-01-31T02:35:30.294Z,32.00
2019-01-31T02:36:30.287Z,31.50
2019-01-31T02:37:30.267Z,32.30
2019-01-31T02:38:30.256Z,31.30
2019-01-31T02:39:42.306Z,31.30
2019-01-31T02:40:30.240Z,31.00
2019-01-31T02:41:30.378Z,31.30
2019-01-31T02:42:30.208Z,32.00
2019-01-31T02:43:30.202Z,31.70
2019-01-31T02:44:30.185Z,32.30
2019-01-31T02:45:30.172Z,31.60
2019-01-31T02:46:30.162Z,31.70
2019-01-31T02:47:30.151Z,30.90
2019-01-31T02:48:30.136Z,31.30
2019-01-31T02:49:30.132Z,31.00
2019-01-31T02:50:30.113Z,31.70
2019-01-31T02:51:30.101Z,31.90
2019-01-31T02:52:30.090Z,31.00
2019-01-31T02:53:30.077Z,31.40
2019-01-31T02:54:30.071Z,31.70
2019-01-31T02:55:30.054Z,31.70
2019-01-31T02:56:30.044Z,31.60
2019-01-31T02:57:30.034Z,31.30
2019-01-31T02:58:30.018Z,31.50
2019-01-31T02:59:30.013Z,30.70
2019-01-31T03:00:29.994Z,31.30
2019-01-31T03:01:29.985Z,30.50
2019-01-31T03:02:29.972Z,30.40
2019-01-31T03:03:29.965Z,29.80
2019-01-31T03:04:29.948Z,30.60
2019-01-31T03:05:29.938Z,31.10
2019-01-31T03:06:29.925Z,30.20
2019-01-31T03:07:29.914Z,30.60
2019-01-31T03:08:29.904Z,30.40
2019-01-31T03:09:29.890Z,31.40
2019-01-31T03:10:29.878Z,30.70
2019-01-31T03:11:29.865Z,31.00
2019-01-31T03:12:29.854Z,30.80
2019-01-31T03:13:29.843Z,30.20
2019-01-31T03:14:29.832Z,30.40
2019-01-31T03:15:29.825Z,30.60
2019-01-31T03:16:29.807Z,29.80
2019-01-31T03:17:29.795Z,29.90
2019-01-31T03:18:29.783Z,30.00
2019-01-31T03:19:29.772Z,29.20
2019-01-31T03:20:29.759Z,30.60
2019-01-31T03:21:29.750Z,30.50
2019-01-31T03:22:29.736Z,29.70
2019-01-31T03:23:29.725Z,29.90
2019-01-31T03:24:29.714Z,30.40
2019-01-31T03:25:29.704Z,30.00
2019-01-31T03:26:29.693Z,29.60
2019-01-31T03:27:29.686Z,29.90
2019-01-31T03:28:29.667Z,30.40
2019-01-31T03:29:29.654Z,29.90
2019-01-31T03:30:29.646Z,29.10
2019-01-31T03:31:29.635Z,29.70
2019-01-31T03:32:29.635Z,29.40
2019-01-31T03:33:29.611Z,28.90
2019-01-31T03:34:29.595Z,30.20
2019-01-31T03:35:29.587Z,29.90
2019-01-31T03:36:29.573Z,30.30
2019-01-31T03:37:29.564Z,29.90
2019-01-31T03:38:29.550Z,29.80
2019-01-31T03:39:29.538Z,28.60
2019-01-31T03:40:29.526Z,29.80
2019-01-31T03:41:29.514Z,29.60
2019-01-31T03:42:29.503Z,29.40
2019-01-31T03:43:29.492Z,30.10
2019-01-31T03:44:29.479Z,29.40
2019-01-31T03:45:29.471Z,29.80
2019-01-31T03:46:29.460Z,29.00
2019-01-31T03:47:29.445Z,28.40
2019-01-31T03:48:29.433Z,28.30
2019-01-31T03:49:29.424Z,28.60
2019-01-31T03:50:29.408Z,29.30
2019-01-31T03:51:29.397Z,29.30
2019-01-31T03:52:29.385Z,29.10
2019-01-31T03:53:29.374Z,28.40
2019-01-31T03:54:29.362Z,28.40
2019-01-31T03:55:29.350Z,28.10
2019-01-31T03:56:29.341Z,27.40
2019-01-31T03:57:29.328Z,27.40
2019-01-31T03:58:29.318Z,27.30
2019-01-31T03:59:29.308Z,27.00
2019-01-31T04:00:29.292Z,27.30
2019-01-31T04:01:29.282Z,27.70
2019-01-31T04:02:29.272Z,27.20
2019-01-31T04:03:29.262Z,27.60
2019-01-31T04:04:29.245Z,27.50
2019-01-31T04:05:29.240Z,27.00
2019-01-31T04:06:29.223Z,27.40
2019-01-31T04:07:29.210Z,26.80
2019-01-31T04:08:29.201Z,26.50
2019-01-31T04:09:29.189Z,26.80
2019-01-31T04:10:29.180Z,26.40
2019-01-31T04:11:29.163Z,27.10
2019-01-31T04:12:29.154Z,27.20
2019-01-31T04:13:29.141Z,26.50
2019-01-31T04:14:29.131Z,26.70
2019-01-31T04:15:29.117Z,26.20
2019-01-31T04:16:29.107Z,26.30
2019-01-31T04:17:29.096Z,26.40
2019-01-31T04:18:29.082Z,26.50
2019-01-31T04:19:29.072Z,26.90
2019-01-31T04:20:29.060Z,24.90
2019-01-31T04:21:29.048Z,26.40
2019-01-31T04:22:29.037Z,26.40
2019-01-31T04:23:29.026Z,26.20
2019-01-31T04:24:29.013Z,26.00
2019-01-31T04:25:29.002Z,26.00
2019-01-31T04:26:28.992Z,26.50
2019-01-31T04:27:28.979Z,25.70
2019-01-31T04:28:30.835Z,26.50
2019-01-31T04:29:28.957Z,27.00
2019-01-31T04:30:28.944Z,26.50
2019-01-31T04:31:28.932Z,26.20
2019-01-31T04:32:28.921Z,26.40
2019-01-31T04:33:28.911Z,25.70
2019-01-31T04:34:28.899Z,25.40
2019-01-31T04:35:28.886Z,25.80
2019-01-31T04:36:28.875Z,25.10
2019-01-31T04:37:28.865Z,26.80
2019-01-31T04:38:28.851Z,26.40
2019-01-31T04:39:28.840Z,26.80
2019-01-31T04:40:31.565Z,26.70
2019-01-31T04:41:28.816Z,27.20
2019-01-31T04:42:28.805Z,27.80
2019-01-31T04:43:28.794Z,27.60
2019-01-31T04:44:28.782Z,27.50
2019-01-31T04:45:28.769Z,27.80
2019-01-31T04:46:28.758Z,27.40
2019-01-31T04:47:28.746Z,27.90
2019-01-31T04:48:28.737Z,27.90
2019-01-31T04:49:28.728Z,28.20
2019-01-31T04:50:28.712Z,27.40
2019-01-31T04:51:28.702Z,28.00
2019-01-31T04:52:28.690Z,27.60
2019-01-31T04:53:28.681Z,27.60
2019-01-31T04:54:28.668Z,26.90
2019-01-31T04:55:28.658Z,26.70
2019-01-31T04:56:28.645Z,28.00
2019-01-31T04:57:28.632Z,27.20
2019-01-31T04:58:28.619Z,27.70
2019-01-31T04:59:28.701Z,27.30
2019-01-31T05:00:28.599Z,26.90
2019-01-31T05:01:28.598Z,26.50
2019-01-31T05:02:28.576Z,26.90
2019-01-31T05:03:28.561Z,26.40
2019-01-31T05:04:28.550Z,26.40
2019-01-31T05:05:28.540Z,26.20
2019-01-31T05:06:28.528Z,26.50
2019-01-31T05:07:28.517Z,26.20
2019-01-31T05:08:30.868Z,25.90
2019-01-31T05:09:28.495Z,26.40
2019-01-31T05:10:28.483Z,26.10
2019-01-31T05:11:28.473Z,26.30
2019-01-31T05:12:28.457Z,26.10
2019-01-31T05:13:28.447Z,25.10
2019-01-31T05:14:28.435Z,25.50
2019-01-31T05:15:28.427Z,25.10
2019-01-31T05:16:28.415Z,25.70
2019-01-31T05:17:28.408Z,25.50
2019-01-31T05:18:28.391Z,25.90
2019-01-31T05:19:28.377Z,25.70
2019-01-31T05:20:28.369Z,26.00
2019-01-31T05:21:28.358Z,25.90
2019-01-31T05:22:28.345Z,25.70
2019-01-31T05:23:28.334Z,25.60
2019-01-31T05:24:28.321Z,26.40
2019-01-31T05:25:28.310Z,26.00
2019-01-31T05:26:28.297Z,25.20
2019-01-31T05:27:28.288Z,26.60
2019-01-31T05:28:28.275Z,25.10
2019-01-31T05:29:28.264Z,25.80
2019-01-31T05:30:28.253Z,25.80
2019-01-31T05:31:28.241Z,26.10
2019-01-31T05:32:28.231Z,25.80
2019-01-31T05:33:28.218Z,26.00
2019-01-31T05:34:28.208Z,25.80
2019-01-31T05:35:28.198Z,25.30
2019-01-31T05:36:28.184Z,26.10
2019-01-31T05:37:28.172Z,25.80
2019-01-31T05:38:28.159Z,25.40
2019-01-31T05:39:28.150Z,24.70
2019-01-31T05:40:28.139Z,25.20
2019-01-31T05:41:28.128Z,25.40
2019-01-31T05:42:28.118Z,25.90
2019-01-31T05:43:28.103Z,25.70
2019-01-31T05:44:28.099Z,24.80
2019-01-31T05:45:28.089Z,24.90
2019-01-31T05:46:28.070Z,24.90
2019-01-31T05:47:28.061Z,25.10
2019-01-31T05:48:28.047Z,25.40
2019-01-31T05:49:28.035Z,24.60
2019-01-31T05:50:28.023Z,24.80
2019-01-31T05:51:28.014Z,24.60
2019-01-31T05:52:28.000Z,25.70
2019-01-31T05:53:27.990Z,25.60
2019-01-31T05:54:27.978Z,24.60
2019-01-31T05:55:27.968Z,24.80
2019-01-31T05:56:27.955Z,25.00
2019-01-31T05:57:27.943Z,25.30
2019-01-31T05:58:27.932Z,25.40
2019-01-31T05:59:27.919Z,25.20
2019-01-31T06:00:27.913Z,25.00
2019-01-31T06:01:27.898Z,24.90
2019-01-31T06:02:27.886Z,25.30
2019-01-31T06:03:27.876Z,25.40
2019-01-31T06:04:27.873Z,25.90
2019-01-31T06:05:27.851Z,25.20
2019-01-31T06:06:27.838Z,25.90
2019-01-31T06:07:27.828Z,26.00
2019-01-31T06:08:27.816Z,26.30
2019-01-31T06:09:27.806Z,25.50
2019-01-31T06:10:27.792Z,26.70
2019-01-31T06:11:27.784Z,26.40
2019-01-31T06:12:27.769Z,26.00
2019-01-31T06:13:27.761Z,25.40
2019-01-31T06:14:27.746Z,26.00
2019-01-31T06:15:27.734Z,26.30
2019-01-31T06:16:27.724Z,26.50
2019-01-31T06:17:27.711Z,26.40
2019-01-31T06:18:27.700Z,26.10
2019-01-31T06:19:27.688Z,25.80
2019-01-31T06:20:27.677Z,25.90
2019-01-31T06:21:27.664Z,25.90
2019-01-31T06:22:27.654Z,25.90
2019-01-31T06:23:27.644Z,26.50
2019-01-31T06:24:27.629Z,25.70
2019-01-31T06:25:27.624Z,26.90
2019-01-31T06:26:27.606Z,26.30
2019-01-31T06:27:27.596Z,26.70
2019-01-31T06:28:27.584Z,26.40
2019-01-31T06:29:27.581Z,26.20
2019-01-31T06:30:27.566Z,25.90
2019-01-31T06:31:27.550Z,25.90
2019-01-31T06:32:27.540Z,26.20
2019-01-31T06:33:28.477Z,25.70
2019-01-31T06:34:27.514Z,26.30
2019-01-31T06:35:27.511Z,25.50
2019-01-31T06:36:27.498Z,24.70
2019-01-31T06:37:27.481Z,24.90
2019-01-31T06:38:27.468Z,25.40
2019-01-31T06:39:27.461Z,25.40
2019-01-31T06:40:27.445Z,24.50
2019-01-31T06:41:27.436Z,25.60
2019-01-31T06:42:27.423Z,24.60
2019-01-31T06:43:27.412Z,24.00
2019-01-31T06:44:27.401Z,23.80
2019-01-31T06:45:27.388Z,24.20
2019-01-31T06:46:27.376Z,24.00
2019-01-31T06:47:27.364Z,23.60
2019-01-31T06:48:27.354Z,23.70
2019-01-31T06:49:27.343Z,23.20
2019-01-31T06:50:27.330Z,23.30
2019-01-31T06:51:27.319Z,23.60
2019-01-31T06:52:27.310Z,23.10
2019-01-31T06:53:27.296Z,22.90
2019-01-31T06:54:27.287Z,23.70
2019-01-31T06:55:27.274Z,23.70
2019-01-31T06:56:27.263Z,23.00
2019-01-31T06:57:27.251Z,23.90
2019-01-31T06:58:27.240Z,23.80
2019-01-31T06:59:27.233Z,23.60
2019-01-31T07:00:27.217Z,23.90
2019-01-31T07:01:27.209Z,24.30
2019-01-31T07:02:27.206Z,23.80
2019-01-31T07:03:27.182Z,24.20
2019-01-31T07:04:27.170Z,24.30
2019-01-31T07:05:27.162Z,23.20
2019-01-31T07:06:27.147Z,24.20
2019-01-31T07:07:27.137Z,24.70
2019-01-31T07:08:27.149Z,23.90
2019-01-31T07:09:27.119Z,23.40
2019-01-31T07:10:27.104Z,23.40
2019-01-31T07:11:30.258Z,23.50
2019-01-31T07:12:27.081Z,23.30
2019-01-31T07:13:27.068Z,22.80
2019-01-31T07:14:27.058Z,23.40
2019-01-31T07:15:27.046Z,22.90
2019-01-31T07:16:27.043Z,23.80
2019-01-31T07:17:27.027Z,23.30
2019-01-31T07:18:27.014Z,22.80
2019-01-31T07:19:27.002Z,23.20
2019-01-31T07:20:26.992Z,23.40
2019-01-31T07:21:26.981Z,23.10
2019-01-31T07:22:26.968Z,22.50
2019-01-31T07:23:26.960Z,23.60
2019-01-31T07:24:26.947Z,24.00
2019-01-31T07:25:26.935Z,22.70
2019-01-31T07:26:26.924Z,23.60
2019-01-31T07:27:26.914Z,23.30
2019-01-31T07:28:26.902Z,24.30
2019-01-31T07:29:26.891Z,24.30
2019-01-31T07:30:26.941Z,25.00
2019-01-31T07:31:26.868Z,25.00
2019-01-31T07:32:26.856Z,24.90
2019-01-31T07:33:26.846Z,25.60
2019-01-31T07:34:26.832Z,25.80
2019-01-31T07:35:26.821Z,26.40
2019-01-31T07:36:26.810Z,25.10
2019-01-31T07:37:26.799Z,26.10
2019-01-31T07:38:26.788Z,25.00
2019-01-31T07:39:26.778Z,25.50
2019-01-31T07:40:26.771Z,25.30
2019-01-31T07:41:26.755Z,25.30
2019-01-31T07:42:26.743Z,25.40
2019-01-31T07:43:26.752Z,24.90
2019-01-31T07:44:26.720Z,25.40
2019-01-31T07:45:26.708Z,24.90
2019-01-31T07:46:26.698Z,25.80
2019-01-31T07:47:26.685Z,25.00
2019-01-31T07:48:26.675Z,26.10
2019-01-31T07:49:26.666Z,26.20
2019-01-31T07:50:26.656Z,25.50
2019-01-31T07:51:26.639Z,25.80
2019-01-31T07:52:26.629Z,24.70
2019-01-31T07:53:26.616Z,26.40
2019-01-31T07:54:26.605Z,26.30
2019-01-31T07:55:26.598Z,25.70
2019-01-31T07:56:26.580Z,26.00
2019-01-31T07:57:26.570Z,26.20
2019-01-31T07:58:26.558Z,26.40
2019-01-31T07:59:26.545Z,26.50
2019-01-31T08:00:26.533Z,26.40
2019-01-31T08:01:26.521Z,25.90
2019-01-31T08:02:26.510Z,26.20
2019-01-31T08:03:26.498Z,26.60
2019-01-31T08:04:26.500Z,27.40
2019-01-31T08:05:26.475Z,26.10
2019-01-31T08:06:26.462Z,27.00
2019-01-31T08:07:28.736Z,27.20
2019-01-31T08:08:26.440Z,26.50
2019-01-31T08:09:26.429Z,27.40
2019-01-31T08:10:26.416Z,26.40
2019-01-31T08:11:26.407Z,27.30
2019-01-31T08:12:26.394Z,26.50
2019-01-31T08:13:26.427Z,27.50
2019-01-31T08:14:26.387Z,26.40
2019-01-31T08:15:26.358Z,26.60
2019-01-31T08:16:26.347Z,26.80
2019-01-31T08:17:26.336Z,26.30
2019-01-31T08:18:26.324Z,25.50
2019-01-31T08:19:26.311Z,25.90
2019-01-31T08:20:26.302Z,25.90
2019-01-31T08:21:26.290Z,26.10
2019-01-31T08:22:26.277Z,26.10
2019-01-31T08:23:26.268Z,25.90
2019-01-31T08:24:26.257Z,25.90
2019-01-31T08:25:26.245Z,26.00
2019-01-31T08:26:26.231Z,25.80
2019-01-31T08:27:26.220Z,26.20
2019-01-31T08:28:26.207Z,25.60
2019-01-31T08:29:26.196Z,24.70
2019-01-31T08:30:26.186Z,26.40
2019-01-31T08:31:26.175Z,24.30
2019-01-31T08:32:26.162Z,26.40
2019-01-31T08:33:28.429Z,24.90
2019-01-31T08:34:26.141Z,25.10
2019-01-31T08:35:26.131Z,25.20
2019-01-31T08:36:26.116Z,24.80
2019-01-31T08:37:26.106Z,25.50
2019-01-31T08:38:26.094Z,24.90
2019-01-31T08:39:26.085Z,25.00
2019-01-31T08:40:26.071Z,25.30
2019-01-31T08:41:26.061Z,25.10
2019-01-31T08:42:26.057Z,25.60
2019-01-31T08:43:26.039Z,25.20
2019-01-31T08:44:27.692Z,24.90
2019-01-31T08:45:26.015Z,25.30
2019-01-31T08:46:26.006Z,25.20
2019-01-31T08:47:25.994Z,24.30
2019-01-31T08:48:25.984Z,25.00
2019-01-31T08:49:25.971Z,24.70
2019-01-31T08:50:27.700Z,25.40
2019-01-31T08:51:25.949Z,24.90
2019-01-31T08:52:25.941Z,24.90
2019-01-31T08:53:25.931Z,24.80
2019-01-31T08:54:25.916Z,24.60
2019-01-31T08:55:25.906Z,24.80
2019-01-31T08:56:25.896Z,25.40
2019-01-31T08:57:25.887Z,24.60
2019-01-31T08:58:25.899Z,24.10
2019-01-31T08:59:25.871Z,24.90
2019-01-31T09:00:25.851Z,24.50
2019-01-31T09:01:25.840Z,24.50
2019-01-31T09:02:25.827Z,24.50
2019-01-31T09:03:25.836Z,24.70
2019-01-31T09:04:25.925Z,24.00
2019-01-31T09:05:25.800Z,23.80
2019-01-31T09:06:25.788Z,23.60
2019-01-31T09:07:25.774Z,23.70
2019-01-31T09:08:25.766Z,23.70
2019-01-31T09:09:25.753Z,24.70
2019-01-31T09:10:25.743Z,23.70
2019-01-31T09:11:25.735Z,24.50
2019-01-31T09:12:25.721Z,24.00
2019-01-31T09:13:25.712Z,24.00
2019-01-31T09:14:25.699Z,24.50
2019-01-31T09:15:25.689Z,24.00
2019-01-31T09:16:25.679Z,22.90
2019-01-31T09:17:25.668Z,23.30
2019-01-31T09:18:25.657Z,23.30
2019-01-31T09:19:25.647Z,23.50
2019-01-31T09:20:25.641Z,23.50
2019-01-31T09:21:25.627Z,23.10
2019-01-31T09:22:25.615Z,23.20
2019-01-31T09:23:25.603Z,23.90
2019-01-31T09:24:25.595Z,23.70
2019-01-31T09:25:25.588Z,23.80
2019-01-31T09:26:25.573Z,23.30
2019-01-31T09:27:25.563Z,24.30
2019-01-31T09:28:25.556Z,23.30
2019-01-31T09:29:25.547Z,23.10
2019-01-31T09:30:25.532Z,23.80
2019-01-31T09:31:25.522Z,23.10
2019-01-31T09:32:25.571Z,23.20
2019-01-31T09:33:25.591Z,22.30
2019-01-31T09:34:25.491Z,22.90
2019-01-31T09:35:25.558Z,22.50
2019-01-31T09:36:25.514Z,22.10
2019-01-31T09:37:25.586Z,22.70
2019-01-31T09:38:25.480Z,22.80
2019-01-31T09:39:25.439Z,23.80
2019-01-31T09:40:25.430Z,23.00
2019-01-31T09:41:25.421Z,23.50
2019-01-31T09:42:26.672Z,22.80
2019-01-31T09:43:25.399Z,23.00
2019-01-31T09:44:25.390Z,23.00
2019-01-31T09:45:25.383Z,23.20
2019-01-31T09:46:25.369Z,23.20
2019-01-31T09:47:25.360Z,23.20
2019-01-31T09:48:25.348Z,23.60
2019-01-31T09:49:25.340Z,23.70
2019-01-31T09:50:28.020Z,24.20
2019-01-31T09:51:25.319Z,23.30
2019-01-31T09:52:25.313Z,23.20
2019-01-31T09:53:25.299Z,23.20
2019-01-31T09:54:25.291Z,23.10
2019-01-31T09:55:25.315Z,23.00
2019-01-31T09:56:25.270Z,23.70
2019-01-31T09:57:25.259Z,23.00
2019-01-31T09:58:27.926Z,24.10
2019-01-31T09:59:25.243Z,24.20
2019-01-31T10:00:27.701Z,23.30
2019-01-31T10:01:25.219Z,23.40
2019-01-31T10:02:25.211Z,22.90
2019-01-31T10:03:25.199Z,23.60
2019-01-31T10:04:25.190Z,22.80
2019-01-31T10:05:25.181Z,23.40
2019-01-31T10:06:25.169Z,22.70
2019-01-31T10:07:25.159Z,23.40
2019-01-31T10:08:25.150Z,23.70
2019-01-31T10:09:25.148Z,22.10
2019-01-31T10:10:25.219Z,22.40
2019-01-31T10:11:25.169Z,22.20
2019-01-31T10:12:25.240Z,21.90
2019-01-31T10:13:25.184Z,22.20
2019-01-31T10:14:25.138Z,21.20
2019-01-31T10:15:25.082Z,21.10
2019-01-31T10:16:25.151Z,21.20
2019-01-31T10:17:25.061Z,22.20
2019-01-31T10:18:25.053Z,21.00
2019-01-31T10:19:25.185Z,20.70
2019-01-31T10:20:25.089Z,20.20
2019-01-31T10:21:25.024Z,19.90
2019-01-31T10:22:25.037Z,19.80
2019-01-31T10:23:25.027Z,20.70
2019-01-31T10:24:24.993Z,19.80
2019-01-31T10:25:25.021Z,19.00
2019-01-31T10:26:24.974Z,19.40
2019-01-31T10:27:24.966Z,18.90
2019-01-31T10:28:24.957Z,19.20
2019-01-31T10:29:24.950Z,18.80
2019-01-31T10:30:24.938Z,19.00
2019-01-31T10:31:24.930Z,18.50
2019-01-31T10:32:24.918Z,18.20
2019-01-31T10:33:24.909Z,18.70
2019-01-31T10:34:24.900Z,17.50
2019-01-31T10:35:24.888Z,17.90
2019-01-31T10:36:24.882Z,17.80
2019-01-31T10:37:24.871Z,16.60
2019-01-31T10:38:24.864Z,16.90
2019-01-31T10:39:24.852Z,16.90
2019-01-31T10:40:24.843Z,17.90
2019-01-31T10:41:24.833Z,17.30
2019-01-31T10:42:24.828Z,16.60
2019-01-31T10:43:24.815Z,15.70
2019-01-31T10:44:24.804Z,15.00
2019-01-31T10:45:24.797Z,15.70
2019-01-31T10:46:24.788Z,15.00
2019-01-31T10:47:24.777Z,15.70
2019-01-31T10:48:24.768Z,15.60
2019-01-31T10:49:24.759Z,15.30
2019-01-31T10:50:24.748Z,15.70
2019-01-31T10:51:24.740Z,15.80
2019-01-31T10:52:24.733Z,15.90
2019-01-31T10:53:24.722Z,15.60
2019-01-31T10:54:24.714Z,15.90
2019-01-31T10:55:24.702Z,14.70
2019-01-31T10:56:24.697Z,15.00
2019-01-31T10:57:24.684Z,15.70
2019-01-31T10:58:24.676Z,16.10
2019-01-31T10:59:24.667Z,15.80
2019-01-31T11:00:24.656Z,16.30
2019-01-31T11:01:24.645Z,15.30
2019-01-31T11:02:24.636Z,14.70
2019-01-31T11:03:24.629Z,14.80
2019-01-31T11:04:24.619Z,15.50
2019-01-31T11:05:24.609Z,15.50
2019-01-31T11:06:24.599Z,15.50
2019-01-31T11:07:24.589Z,14.90
2019-01-31T11:08:24.581Z,15.10
2019-01-31T11:09:24.572Z,15.20
2019-01-31T11:10:24.564Z,14.60
2019-01-31T11:11:24.555Z,14.60
2019-01-31T11:12:24.543Z,14.30
2019-01-31T11:13:24.536Z,13.70
2019-01-31T11:14:24.525Z,14.70
2019-01-31T11:15:24.519Z,14.00
2019-01-31T11:16:24.505Z,14.60
2019-01-31T11:17:24.498Z,14.90
2019-01-31T11:18:24.488Z,15.60
2019-01-31T11:19:24.478Z,14.90
2019-01-31T11:20:24.466Z,14.60
2019-01-31T11:21:24.459Z,13.50
2019-01-31T11:22:24.449Z,13.70
2019-01-31T11:23:24.441Z,13.10
2019-01-31T11:24:24.431Z,13.40
2019-01-31T11:25:24.421Z,13.90
2019-01-31T11:26:24.411Z,13.60
2019-01-31T11:27:24.401Z,14.50
2019-01-31T11:28:24.394Z,14.60
2019-01-31T11:29:24.384Z,15.10
2019-01-31T11:30:24.374Z,15.70
2019-01-31T11:31:24.372Z,15.40
2019-01-31T11:32:24.355Z,15.50
2019-01-31T11:33:24.345Z,15.10
2019-01-31T11:34:32.679Z,14.70
2019-01-31T11:35:24.327Z,14.60
2019-01-31T11:36:24.321Z,13.90
2019-01-31T11:37:24.309Z,14.00
2019-01-31T11:38:24.301Z,14.10
2019-01-31T11:39:24.289Z,13.70
2019-01-31T11:40:24.280Z,13.80
2019-01-31T11:41:24.272Z,14.10
2019-01-31T11:42:24.262Z,14.50
2019-01-31T11:43:24.252Z,14.50
2019-01-31T11:44:24.242Z,13.70
2019-01-31T11:45:24.232Z,13.30
2019-01-31T11:46:24.341Z,13.20
2019-01-31T11:47:24.215Z,14.30
2019-01-31T11:48:24.206Z,13.50
2019-01-31T11:49:24.196Z,13.40
2019-01-31T11:50:24.186Z,12.20
2019-01-31T11:51:24.177Z,11.80
2019-01-31T11:52:24.166Z,11.60
2019-01-31T11:53:24.157Z,11.00
2019-01-31T11:54:24.148Z,12.20
2019-01-31T11:55:24.140Z,11.50
2019-01-31T11:56:24.133Z,11.70
2019-01-31T11:57:24.123Z,11.70
2019-01-31T11:58:24.115Z,11.30
2019-01-31T11:59:24.102Z,12.40
2019-01-31T12:00:24.093Z,12.40
2019-01-31T12:01:24.085Z,12.70
2019-01-31T12:02:24.075Z,12.70
2019-01-31T12:03:24.067Z,11.80
2019-01-31T12:04:24.055Z,12.00
2019-01-31T12:05:24.049Z,11.90
2019-01-31T12:06:24.037Z,11.80
2019-01-31T12:07:24.029Z,11.80
2019-01-31T12:08:24.020Z,12.60
2019-01-31T12:09:24.012Z,12.20
2019-01-31T12:10:24.000Z,12.00
2019-01-31T12:11:23.995Z,12.60
2019-01-31T12:12:23.983Z,12.40
2019-01-31T12:13:23.988Z,12.60
2019-01-31T12:14:23.968Z,12.40
2019-01-31T12:15:24.194Z,12.60
2019-01-31T12:16:23.990Z,12.90
2019-01-31T12:17:23.939Z,12.30
2019-01-31T12:18:23.929Z,13.10
2019-01-31T12:19:23.921Z,12.30
2019-01-31T12:20:23.911Z,12.60
2019-01-31T12:21:23.903Z,13.30
2019-01-31T12:22:23.895Z,12.40
2019-01-31T12:23:23.884Z,12.20
2019-01-31T12:24:23.877Z,12.60
2019-01-31T12:25:23.870Z,12.50
2019-01-31T12:26:23.859Z,12.00
2019-01-31T12:27:23.850Z,12.00
2019-01-31T12:28:23.842Z,11.90
2019-01-31T12:29:23.834Z,11.60
2019-01-31T12:30:23.827Z,11.90
2019-01-31T12:31:23.814Z,11.70
2019-01-31T12:32:23.807Z,12.00
2019-01-31T12:33:23.798Z,11.70
2019-01-31T12:34:23.791Z,11.70
2019-01-31T12:35:23.780Z,12.20
2019-01-31T12:36:23.773Z,12.30
2019-01-31T12:37:23.763Z,12.10
2019-01-31T12:38:23.756Z,12.30
2019-01-31T12:39:23.748Z,12.00
2019-01-31T12:40:23.737Z,12.30
2019-01-31T12:41:23.726Z,11.60
2019-01-31T12:42:23.746Z,11.60
2019-01-31T12:43:34.364Z,11.80
2019-01-31T12:44:23.701Z,11.80
2019-01-31T12:45:23.694Z,12.00
2019-01-31T12:46:23.740Z,11.70
2019-01-31T12:47:23.704Z,12.00
2019-01-31T12:48:23.805Z,12.00
2019-01-31T12:49:23.659Z,11.80
2019-01-31T12:50:23.648Z,12.30
2019-01-31T12:51:23.641Z,11.50
2019-01-31T12:52:23.649Z,11.10